Princeton, Wisconsin
Current Conditions -  °F | °C
As of 9:22 AM on Friday 24 Oct 2014 (Local Time) from KY50 Reporting Station
Moderate Fog Moderate Fog  
Wind Chill: 46°   Ceiling: 100
Heat Index: 46°   Visibility: 0.25mi
Dew Point: 46°   Wind: 0mph
Humidity: 100%   Direction: NA
Pressure: 30.03"   Gusts: NA
Location:  43.85°N, 89.12°W
Report Text: KY50 241422Z AUTO 00000KT 1/4SM FG OVC001 08/08 A3003 RMK AO2 TSNO
Loading
Personal Weather Stations






























Interactive Weather Map
Tropical Storm Tracking
New forecast layout! Learn more

10-Day Weather Forecast

Advertisements
Track Severe Weather on mobile